KPGA/PGA METAR and TAF weather

Enter ICAO airport designator
Station Type Date Time Source
KPGA METAR 2018/12/19 03:53 UTC NOAA

KPGA 190353Z AUTO 00000KT 10SM CLR 04/M04 A3017 RMK AO2 SLP214 T00441039 TSNO


Station Type Date Time Source
KPGA Decoded METAR 2018/12/19 03:53 UTC NOAA

PAGE MUNICIPAL AIRPORT, AZ, United States (KPGA) 36-56N 111-27W 1307M
Dec 18, 2018 - 10:53 PM EST / 2018.12.19 0353 UTC
Wind: Calm:0
Visibility: 10 mile(s):0
Sky conditions: clear
Temperature: 39.9 F (4.4 C)
Dew Point: 25.0 F (-3.9 C)
Relative Humidity: 54%
Pressure (altimeter): 30.17 in. Hg (1021 hPa)
ob: KPGA 190353Z AUTO 00000KT 10SM CLR 04/M04 A3017 RMK AO2 SLP214 T00441039 TSNO
cycle: 4

Station Type Date Time Source
KPGA TAF 2018/12/18 18:22 UTC NOAA

TAF KPGA 181720Z 1818/1918 VRB04KT P6SM FEW250


Example: see airport list